sensor_id;sensor_type;location;lat;lon;timestamp;P1;durP1;ratioP1;P2;durP2;ratioP2
22715;SDS011;11525;51.152;4.456;2023-11-21T00:00:34;69.50;;;45.17;;
22715;SDS011;11525;51.152;4.456;2023-11-21T00:03:00;76.10;;;48.40;;
22715;SDS011;11525;51.152;4.456;2023-11-21T00:05:26;74.43;;;45.33;;
22715;SDS011;11525;51.152;4.456;2023-11-21T00:07:52;79.60;;;46.25;;
22715;SDS011;11525;51.152;4.456;2023-11-21T00:10:17;84.78;;;50.13;;
22715;SDS011;11525;51.152;4.456;2023-11-21T00:12:43;72.40;;;45.20;;
22715;SDS011;11525;51.152;4.456;2023-11-21T00:15:09;63.45;;;45.33;;
22715;SDS011;11525;51.152;4.456;2023-11-21T00:17:38;74.93;;;50.42;;
22715;SDS011;11525;51.152;4.456;2023-11-21T00:20:05;67.05;;;46.53;;
22715;SDS011;11525;51.152;4.456;2023-11-21T00:22:35;73.03;;;46.63;;
22715;SDS011;11525;51.152;4.456;2023-11-21T00:25:01;75.60;;;49.08;;
22715;SDS011;11525;51.152;4.456;2023-11-21T00:27:29;77.63;;;48.85;;
22715;SDS011;11525;51.152;4.456;2023-11-21T00:29:55;73.28;;;47.70;;
22715;SDS011;11525;51.152;4.456;2023-11-21T00:32:21;79.88;;;50.63;;
22715;SDS011;11525;51.152;4.456;2023-11-21T00:34:47;84.00;;;52.50;;
22715;SDS011;11525;51.152;4.456;2023-11-21T00:37:14;81.10;;;51.97;;
22715;SDS011;11525;51.152;4.456;2023-11-21T00:39:39;90.00;;;55.38;;
22715;SDS011;11525;51.152;4.456;2023-11-21T00:42:05;84.57;;;55.30;;
22715;SDS011;11525;51.152;4.456;2023-11-21T00:44:31;81.95;;;53.60;;
22715;SDS011;11525;51.152;4.456;2023-11-21T00:46:59;75.72;;;51.42;;
22715;SDS011;11525;51.152;4.456;2023-11-21T00:49:25;87.18;;;51.05;;
22715;SDS011;11525;51.152;4.456;2023-11-21T00:51:51;87.82;;;52.13;;
22715;SDS011;11525;51.152;4.456;2023-11-21T00:54:17;80.25;;;50.88;;
22715;SDS011;11525;51.152;4.456;2023-11-21T00:56:43;75.90;;;49.42;;
22715;SDS011;11525;51.152;4.456;2023-11-21T00:59:09;80.35;;;50.90;;
22715;SDS011;11525;51.152;4.456;2023-11-21T01:01:35;78.25;;;48.28;;
22715;SDS011;11525;51.152;4.456;2023-11-21T01:04:03;75.80;;;50.72;;
22715;SDS011;11525;51.152;4.456;2023-11-21T01:06:29;77.03;;;49.38;;
22715;SDS011;11525;51.152;4.456;2023-11-21T01:08:55;71.97;;;47.10;;
22715;SDS011;11525;51.152;4.456;2023-11-21T01:11:20;75.75;;;45.65;;
22715;SDS011;11525;51.152;4.456;2023-11-21T01:13:47;71.32;;;46.17;;
22715;SDS011;11525;51.152;4.456;2023-11-21T01:16:12;77.80;;;49.90;;
22715;SDS011;11525;51.152;4.456;2023-11-21T01:18:41;75.70;;;48.45;;
22715;SDS011;11525;51.152;4.456;2023-11-21T01:21:07;90.72;;;51.33;;
22715;SDS011;11525;51.152;4.456;2023-11-21T01:23:34;90.63;;;52.33;;
22715;SDS011;11525;51.152;4.456;2023-11-21T01:26:00;78.57;;;50.67;;
22715;SDS011;11525;51.152;4.456;2023-11-21T01:28:26;69.13;;;47.00;;
22715;SDS011;11525;51.152;4.456;2023-11-21T01:30:51;88.40;;;54.92;;
22715;SDS011;11525;51.152;4.456;2023-11-21T01:33:21;81.60;;;52.08;;
22715;SDS011;11525;51.152;4.456;2023-11-21T01:35:50;79.47;;;50.15;;
22715;SDS011;11525;51.152;4.456;2023-11-21T01:38:16;81.05;;;53.47;;
22715;SDS011;11525;51.152;4.456;2023-11-21T01:40:42;87.53;;;53.13;;
22715;SDS011;11525;51.152;4.456;2023-11-21T01:43:08;87.38;;;51.25;;
22715;SDS011;11525;51.152;4.456;2023-11-21T01:45:34;78.82;;;48.22;;
22715;SDS011;11525;51.152;4.456;2023-11-21T01:48:00;87.70;;;52.20;;
22715;SDS011;11525;51.152;4.456;2023-11-21T01:50:28;83.07;;;49.60;;
22715;SDS011;11525;51.152;4.456;2023-11-21T01:52:54;89.53;;;53.30;;
22715;SDS011;11525;51.152;4.456;2023-11-21T01:55:20;87.28;;;51.03;;
22715;SDS011;11525;51.152;4.456;2023-11-21T01:57:46;92.68;;;55.45;;
22715;SDS011;11525;51.152;4.456;2023-11-21T02:00:13;82.68;;;49.03;;
22715;SDS011;11525;51.152;4.456;2023-11-21T02:02:45;81.72;;;50.58;;
22715;SDS011;11525;51.152;4.456;2023-11-21T02:05:11;77.25;;;48.28;;
22715;SDS011;11525;51.152;4.456;2023-11-21T02:07:39;70.45;;;44.97;;
22715;SDS011;11525;51.152;4.456;2023-11-21T02:10:07;87.68;;;51.22;;
22715;SDS011;11525;51.152;4.456;2023-11-21T02:12:34;85.13;;;52.47;;
22715;SDS011;11525;51.152;4.456;2023-11-21T02:15:03;85.75;;;48.50;;
22715;SDS011;11525;51.152;4.456;2023-11-21T02:17:41;79.32;;;46.92;;
22715;SDS011;11525;51.152;4.456;2023-11-21T02:20:09;84.55;;;50.10;;
22715;SDS011;11525;51.152;4.456;2023-11-21T02:22:41;82.13;;;49.63;;
22715;SDS011;11525;51.152;4.456;2023-11-21T02:25:07;79.78;;;47.90;;
22715;SDS011;11525;51.152;4.456;2023-11-21T02:27:34;75.60;;;46.38;;
22715;SDS011;11525;51.152;4.456;2023-11-21T02:30:00;73.55;;;45.63;;
22715;SDS011;11525;51.152;4.456;2023-11-21T02:32:26;74.35;;;45.70;;
22715;SDS011;11525;51.152;4.456;2023-11-21T02:34:53;80.28;;;47.38;;
22715;SDS011;11525;51.152;4.456;2023-11-21T02:37:21;75.80;;;45.13;;
22715;SDS011;11525;51.152;4.456;2023-11-21T02:39:46;75.82;;;45.13;;
22715;SDS011;11525;51.152;4.456;2023-11-21T02:42:12;79.03;;;46.63;;
22715;SDS011;11525;51.152;4.456;2023-11-21T02:44:38;72.05;;;44.08;;
22715;SDS011;11525;51.152;4.456;2023-11-21T02:47:04;70.80;;;42.80;;
22715;SDS011;11525;51.152;4.456;2023-11-21T02:49:30;69.10;;;42.97;;
22715;SDS011;11525;51.152;4.456;2023-11-21T02:51:55;65.15;;;41.47;;
22715;SDS011;11525;51.152;4.456;2023-11-21T02:54:21;74.65;;;45.90;;
22715;SDS011;11525;51.152;4.456;2023-11-21T02:56:47;66.70;;;41.75;;
22715;SDS011;11525;51.152;4.456;2023-11-21T02:59:14;66.28;;;43.63;;
22715;SDS011;11525;51.152;4.456;2023-11-21T03:01:41;67.13;;;40.97;;
22715;SDS011;11525;51.152;4.456;2023-11-21T03:04:07;63.67;;;41.55;;
22715;SDS011;11525;51.152;4.456;2023-11-21T03:06:32;67.78;;;41.78;;
22715;SDS011;11525;51.152;4.456;2023-11-21T03:08:59;65.93;;;41.25;;
22715;SDS011;11525;51.152;4.456;2023-11-21T03:11:25;69.50;;;40.80;;
22715;SDS011;11525;51.152;4.456;2023-11-21T03:13:51;61.47;;;39.88;;
22715;SDS011;11525;51.152;4.456;2023-11-21T03:16:16;67.82;;;42.60;;
22715;SDS011;11525;51.152;4.456;2023-11-21T03:18:44;65.38;;;41.58;;
22715;SDS011;11525;51.152;4.456;2023-11-21T03:21:10;56.60;;;37.67;;
22715;SDS011;11525;51.152;4.456;2023-11-21T03:23:37;62.10;;;39.97;;
22715;SDS011;11525;51.152;4.456;2023-11-21T03:26:03;59.47;;;35.33;;
22715;SDS011;11525;51.152;4.456;2023-11-21T03:28:33;55.97;;;35.70;;
22715;SDS011;11525;51.152;4.456;2023-11-21T03:30:59;61.00;;;39.30;;
22715;SDS011;11525;51.152;4.456;2023-11-21T03:33:25;59.50;;;38.88;;
22715;SDS011;11525;51.152;4.456;2023-11-21T03:35:51;58.88;;;39.63;;
22715;SDS011;11525;51.152;4.456;2023-11-21T03:38:18;61.60;;;39.95;;
22715;SDS011;11525;51.152;4.456;2023-11-21T03:40:45;66.72;;;39.72;;
22715;SDS011;11525;51.152;4.456;2023-11-21T03:43:12;60.22;;;38.30;;
22715;SDS011;11525;51.152;4.456;2023-11-21T03:45:38;60.03;;;37.80;;
22715;SDS011;11525;51.152;4.456;2023-11-21T03:48:06;59.40;;;38.47;;
22715;SDS011;11525;51.152;4.456;2023-11-21T03:50:32;66.15;;;40.60;;
22715;SDS011;11525;51.152;4.456;2023-11-21T03:52:58;56.30;;;35.88;;
22715;SDS011;11525;51.152;4.456;2023-11-21T03:55:24;61.25;;;36.50;;
22715;SDS011;11525;51.152;4.456;2023-11-21T03:57:50;53.47;;;33.58;;
22715;SDS011;11525;51.152;4.456;2023-11-21T04:00:16;63.95;;;39.42;;
22715;SDS011;11525;51.152;4.456;2023-11-21T04:02:42;60.67;;;36.83;;
22715;SDS011;11525;51.152;4.456;2023-11-21T04:05:08;57.53;;;36.03;;
22715;SDS011;11525;51.152;4.456;2023-11-21T04:07:34;59.90;;;37.15;;
22715;SDS011;11525;51.152;4.456;2023-11-21T04:10:00;54.70;;;35.53;;
22715;SDS011;11525;51.152;4.456;2023-11-21T04:12:26;59.20;;;36.90;;
22715;SDS011;11525;51.152;4.456;2023-11-21T04:14:52;47.67;;;33.70;;
22715;SDS011;11525;51.152;4.456;2023-11-21T04:17:18;50.40;;;34.58;;
22715;SDS011;11525;51.152;4.456;2023-11-21T04:19:44;57.03;;;34.75;;
22715;SDS011;11525;51.152;4.456;2023-11-21T04:22:11;61.83;;;36.42;;
22715;SDS011;11525;51.152;4.456;2023-11-21T04:24:37;61.22;;;35.35;;
22715;SDS011;11525;51.152;4.456;2023-11-21T04:27:02;55.33;;;35.15;;
22715;SDS011;11525;51.152;4.456;2023-11-21T04:29:28;61.35;;;36.38;;
22715;SDS011;11525;51.152;4.456;2023-11-21T04:31:54;47.13;;;33.30;;
22715;SDS011;11525;51.152;4.456;2023-11-21T04:34:20;53.22;;;33.60;;
22715;SDS011;11525;51.152;4.456;2023-11-21T04:36:46;55.42;;;36.38;;
22715;SDS011;11525;51.152;4.456;2023-11-21T04:39:12;46.13;;;33.97;;
22715;SDS011;11525;51.152;4.456;2023-11-21T04:41:37;52.42;;;34.30;;
22715;SDS011;11525;51.152;4.456;2023-11-21T04:44:06;59.95;;;37.05;;
22715;SDS011;11525;51.152;4.456;2023-11-21T04:46:32;56.53;;;34.38;;
22715;SDS011;11525;51.152;4.456;2023-11-21T04:48:58;52.28;;;34.17;;
22715;SDS011;11525;51.152;4.456;2023-11-21T04:51:24;53.38;;;35.88;;
22715;SDS011;11525;51.152;4.456;2023-11-21T04:53:50;58.67;;;35.80;;
22715;SDS011;11525;51.152;4.456;2023-11-21T04:56:16;59.33;;;35.15;;
22715;SDS011;11525;51.152;4.456;2023-11-21T04:58:41;47.80;;;32.90;;
22715;SDS011;11525;51.152;4.456;2023-11-21T05:01:07;58.58;;;35.55;;
22715;SDS011;11525;51.152;4.456;2023-11-21T05:03:33;49.28;;;34.40;;
22715;SDS011;11525;51.152;4.456;2023-11-21T05:06:00;56.22;;;34.58;;
22715;SDS011;11525;51.152;4.456;2023-11-21T05:08:25;52.03;;;35.05;;
22715;SDS011;11525;51.152;4.456;2023-11-21T05:10:52;46.53;;;32.53;;
22715;SDS011;11525;51.152;4.456;2023-11-21T05:13:18;47.22;;;31.77;;
22715;SDS011;11525;51.152;4.456;2023-11-21T05:15:45;48.78;;;33.10;;
22715;SDS011;11525;51.152;4.456;2023-11-21T05:18:11;53.17;;;33.42;;
22715;SDS011;11525;51.152;4.456;2023-11-21T05:20:38;47.33;;;32.25;;
22715;SDS011;11525;51.152;4.456;2023-11-21T05:23:06;59.42;;;35.78;;
22715;SDS011;11525;51.152;4.456;2023-11-21T05:25:33;58.42;;;35.38;;
22715;SDS011;11525;51.152;4.456;2023-11-21T05:27:59;50.88;;;33.80;;
22715;SDS011;11525;51.152;4.456;2023-11-21T05:30:26;47.72;;;31.90;;
22715;SDS011;11525;51.152;4.456;2023-11-21T05:32:53;53.42;;;34.40;;
22715;SDS011;11525;51.152;4.456;2023-11-21T05:35:18;46.25;;;31.35;;
22715;SDS011;11525;51.152;4.456;2023-11-21T05:37:45;54.50;;;34.75;;
22715;SDS011;11525;51.152;4.456;2023-11-21T05:40:11;49.92;;;32.05;;
22715;SDS011;11525;51.152;4.456;2023-11-21T05:42:38;62.92;;;35.95;;
22715;SDS011;11525;51.152;4.456;2023-11-21T05:45:05;55.97;;;34.97;;
22715;SDS011;11525;51.152;4.456;2023-11-21T05:47:36;53.70;;;34.50;;
22715;SDS011;11525;51.152;4.456;2023-11-21T05:50:04;52.92;;;33.63;;
22715;SDS011;11525;51.152;4.456;2023-11-21T05:52:30;48.60;;;34.88;;
22715;SDS011;11525;51.152;4.456;2023-11-21T05:54:57;56.90;;;35.15;;
22715;SDS011;11525;51.152;4.456;2023-11-21T05:57:23;53.42;;;34.10;;
22715;SDS011;11525;51.152;4.456;2023-11-21T05:59:49;50.70;;;34.45;;
22715;SDS011;11525;51.152;4.456;2023-11-21T06:02:15;56.08;;;36.25;;
22715;SDS011;11525;51.152;4.456;2023-11-21T06:04:41;45.70;;;30.85;;
22715;SDS011;11525;51.152;4.456;2023-11-21T06:07:07;60.30;;;36.13;;
22715;SDS011;11525;51.152;4.456;2023-11-21T06:09:33;51.40;;;32.67;;
22715;SDS011;11525;51.152;4.456;2023-11-21T06:11:59;41.55;;;29.88;;
22715;SDS011;11525;51.152;4.456;2023-11-21T06:14:25;49.20;;;34.28;;
22715;SDS011;11525;51.152;4.456;2023-11-21T06:16:51;43.60;;;27.13;;
22715;SDS011;11525;51.152;4.456;2023-11-21T06:19:17;52.15;;;35.05;;
22715;SDS011;11525;51.152;4.456;2023-11-21T06:21:46;54.10;;;35.28;;
22715;SDS011;11525;51.152;4.456;2023-11-21T06:24:12;58.30;;;34.92;;
22715;SDS011;11525;51.152;4.456;2023-11-21T06:26:40;60.53;;;36.10;;
22715;SDS011;11525;51.152;4.456;2023-11-21T06:29:06;53.40;;;33.75;;
22715;SDS011;11525;51.152;4.456;2023-11-21T06:31:32;51.47;;;33.47;;
22715;SDS011;11525;51.152;4.456;2023-11-21T06:33:58;59.03;;;35.35;;
22715;SDS011;11525;51.152;4.456;2023-11-21T06:36:25;57.92;;;36.40;;
22715;SDS011;11525;51.152;4.456;2023-11-21T06:38:51;64.00;;;37.72;;
22715;SDS011;11525;51.152;4.456;2023-11-21T06:41:17;51.70;;;33.20;;
22715;SDS011;11525;51.152;4.456;2023-11-21T06:43:43;60.65;;;36.53;;
22715;SDS011;11525;51.152;4.456;2023-11-21T06:46:11;55.28;;;35.10;;
22715;SDS011;11525;51.152;4.456;2023-11-21T06:48:40;59.50;;;36.50;;
22715;SDS011;11525;51.152;4.456;2023-11-21T06:51:07;60.95;;;36.72;;
22715;SDS011;11525;51.152;4.456;2023-11-21T06:53:33;60.50;;;35.83;;
22715;SDS011;11525;51.152;4.456;2023-11-21T06:55:59;64.78;;;37.50;;
22715;SDS011;11525;51.152;4.456;2023-11-21T06:58:24;74.22;;;38.35;;
22715;SDS011;11525;51.152;4.456;2023-11-21T07:00:50;53.13;;;34.95;;
22715;SDS011;11525;51.152;4.456;2023-11-21T07:03:17;61.53;;;36.65;;
22715;SDS011;11525;51.152;4.456;2023-11-21T07:05:44;59.85;;;36.65;;
22715;SDS011;11525;51.152;4.456;2023-11-21T07:08:10;60.50;;;35.60;;
22715;SDS011;11525;51.152;4.456;2023-11-21T07:10:37;51.85;;;33.50;;
22715;SDS011;11525;51.152;4.456;2023-11-21T07:13:03;73.25;;;39.28;;
22715;SDS011;11525;51.152;4.456;2023-11-21T07:15:29;67.13;;;36.58;;
22715;SDS011;11525;51.152;4.456;2023-11-21T07:17:55;62.45;;;37.72;;
22715;SDS011;11525;51.152;4.456;2023-11-21T07:20:21;73.72;;;38.88;;
22715;SDS011;11525;51.152;4.456;2023-11-21T07:22:47;60.47;;;34.53;;
22715;SDS011;11525;51.152;4.456;2023-11-21T07:25:13;65.43;;;35.85;;
22715;SDS011;11525;51.152;4.456;2023-11-21T07:27:39;62.70;;;35.28;;
22715;SDS011;11525;51.152;4.456;2023-11-21T07:30:05;55.08;;;33.78;;
22715;SDS011;11525;51.152;4.456;2023-11-21T07:32:33;62.95;;;36.95;;
22715;SDS011;11525;51.152;4.456;2023-11-21T07:34:59;59.47;;;37.25;;
22715;SDS011;11525;51.152;4.456;2023-11-21T07:37:26;55.88;;;35.55;;
22715;SDS011;11525;51.152;4.456;2023-11-21T07:39:53;60.03;;;36.70;;
22715;SDS011;11525;51.152;4.456;2023-11-21T07:42:23;59.53;;;34.72;;
22715;SDS011;11525;51.152;4.456;2023-11-21T07:44:51;59.35;;;34.70;;
22715;SDS011;11525;51.152;4.456;2023-11-21T07:47:17;57.88;;;35.75;;
22715;SDS011;11525;51.152;4.456;2023-11-21T07:49:43;58.28;;;35.30;;
22715;SDS011;11525;51.152;4.456;2023-11-21T07:52:10;78.63;;;38.72;;
22715;SDS011;11525;51.152;4.456;2023-11-21T07:54:35;65.47;;;38.05;;
22715;SDS011;11525;51.152;4.456;2023-11-21T07:57:01;63.45;;;37.67;;
22715;SDS011;11525;51.152;4.456;2023-11-21T07:59:29;57.47;;;36.33;;
22715;SDS011;11525;51.152;4.456;2023-11-21T08:01:55;63.20;;;37.65;;
22715;SDS011;11525;51.152;4.456;2023-11-21T08:04:21;57.75;;;36.85;;
22715;SDS011;11525;51.152;4.456;2023-11-21T08:06:47;64.18;;;38.20;;
22715;SDS011;11525;51.152;4.456;2023-11-21T08:09:13;59.85;;;35.17;;
22715;SDS011;11525;51.152;4.456;2023-11-21T08:11:40;68.72;;;39.00;;
22715;SDS011;11525;51.152;4.456;2023-11-21T08:14:07;58.65;;;36.15;;
22715;SDS011;11525;51.152;4.456;2023-11-21T08:16:32;73.25;;;38.53;;
22715;SDS011;11525;51.152;4.456;2023-11-21T08:18:58;58.53;;;33.75;;
22715;SDS011;11525;51.152;4.456;2023-11-21T08:21:24;71.28;;;37.35;;
22715;SDS011;11525;51.152;4.456;2023-11-21T08:23:54;67.25;;;35.35;;
22715;SDS011;11525;51.152;4.456;2023-11-21T08:26:21;77.47;;;36.70;;
22715;SDS011;11525;51.152;4.456;2023-11-21T08:28:47;75.15;;;37.30;;
22715;SDS011;11525;51.152;4.456;2023-11-21T08:31:13;72.85;;;34.50;;
22715;SDS011;11525;51.152;4.456;2023-11-21T08:33:39;66.30;;;34.35;;
22715;SDS011;11525;51.152;4.456;2023-11-21T08:36:08;65.22;;;34.58;;
22715;SDS011;11525;51.152;4.456;2023-11-21T08:38:36;68.72;;;34.53;;
22715;SDS011;11525;51.152;4.456;2023-11-21T08:41:06;57.17;;;31.85;;
22715;SDS011;11525;51.152;4.456;2023-11-21T08:43:35;69.28;;;34.63;;
22715;SDS011;11525;51.152;4.456;2023-11-21T08:46:04;68.40;;;35.90;;
22715;SDS011;11525;51.152;4.456;2023-11-21T08:48:31;68.18;;;35.05;;
22715;SDS011;11525;51.152;4.456;2023-11-21T08:50:56;59.65;;;33.40;;
22715;SDS011;11525;51.152;4.456;2023-11-21T08:53:28;79.53;;;38.45;;
22715;SDS011;11525;51.152;4.456;2023-11-21T08:55:56;53.85;;;32.40;;
22715;SDS011;11525;51.152;4.456;2023-11-21T08:58:22;69.03;;;36.03;;
22715;SDS011;11525;51.152;4.456;2023-11-21T09:00:48;72.72;;;35.28;;
22715;SDS011;11525;51.152;4.456;2023-11-21T09:03:14;52.15;;;30.88;;
22715;SDS011;11525;51.152;4.456;2023-11-21T09:05:40;52.72;;;30.20;;
22715;SDS011;11525;51.152;4.456;2023-11-21T09:08:05;51.08;;;31.67;;
22715;SDS011;11525;51.152;4.456;2023-11-21T09:10:34;58.00;;;33.50;;
22715;SDS011;11525;51.152;4.456;2023-11-21T09:13:04;56.85;;;34.33;;
22715;SDS011;11525;51.152;4.456;2023-11-21T09:15:30;48.17;;;31.45;;
22715;SDS011;11525;51.152;4.456;2023-11-21T09:17:56;50.50;;;30.40;;
22715;SDS011;11525;51.152;4.456;2023-11-21T09:20:21;42.08;;;28.10;;
22715;SDS011;11525;51.152;4.456;2023-11-21T09:22:48;44.22;;;29.55;;
22715;SDS011;11525;51.152;4.456;2023-11-21T09:25:14;42.08;;;28.05;;
22715;SDS011;11525;51.152;4.456;2023-11-21T09:27:41;40.35;;;27.23;;
22715;SDS011;11525;51.152;4.456;2023-11-21T09:30:07;44.92;;;28.00;;
22715;SDS011;11525;51.152;4.456;2023-11-21T09:32:35;37.95;;;25.90;;
22715;SDS011;11525;51.152;4.456;2023-11-21T09:35:02;37.63;;;25.02;;
22715;SDS011;11525;51.152;4.456;2023-11-21T09:37:33;39.75;;;27.17;;
22715;SDS011;11525;51.152;4.456;2023-11-21T09:39:59;32.92;;;24.00;;
22715;SDS011;11525;51.152;4.456;2023-11-21T09:43:08;31.88;;;24.25;;
22715;SDS011;11525;51.152;4.456;2023-11-21T09:45:32;30.90;;;21.83;;
22715;SDS011;11525;51.152;4.456;2023-11-21T09:48:00;33.67;;;22.55;;
22715;SDS011;11525;51.152;4.456;2023-11-21T09:50:27;31.85;;;20.42;;
22715;SDS011;11525;51.152;4.456;2023-11-21T09:55:47;24.55;;;15.70;;
22715;SDS011;11525;51.152;4.456;2023-11-21T09:58:15;20.50;;;14.00;;
22715;SDS011;11525;51.152;4.456;2023-11-21T10:00:48;19.45;;;13.02;;
22715;SDS011;11525;51.152;4.456;2023-11-21T10:03:16;20.92;;;14.73;;
22715;SDS011;11525;51.152;4.456;2023-11-21T10:05:42;23.02;;;14.20;;
22715;SDS011;11525;51.152;4.456;2023-11-21T10:08:11;20.17;;;13.52;;
22715;SDS011;11525;51.152;4.456;2023-11-21T10:10:42;19.63;;;13.57;;
22715;SDS011;11525;51.152;4.456;2023-11-21T10:13:15;19.95;;;13.43;;
22715;SDS011;11525;51.152;4.456;2023-11-21T10:15:44;20.95;;;13.73;;
22715;SDS011;11525;51.152;4.456;2023-11-21T10:18:16;16.77;;;12.27;;
22715;SDS011;11525;51.152;4.456;2023-11-21T10:20:42;19.20;;;13.18;;
22715;SDS011;11525;51.152;4.456;2023-11-21T10:23:11;24.08;;;14.15;;
22715;SDS011;11525;51.152;4.456;2023-11-21T10:25:38;16.90;;;11.85;;
22715;SDS011;11525;51.152;4.456;2023-11-21T10:28:05;19.65;;;12.25;;
22715;SDS011;11525;51.152;4.456;2023-11-21T10:30:32;23.70;;;13.23;;
22715;SDS011;11525;51.152;4.456;2023-11-21T10:33:02;24.52;;;11.40;;
22715;SDS011;11525;51.152;4.456;2023-11-21T10:35:38;24.27;;;10.95;;
22715;SDS011;11525;51.152;4.456;2023-11-21T10:38:07;28.75;;;11.88;;
22715;SDS011;11525;51.152;4.456;2023-11-21T10:40:38;18.02;;;10.88;;
22715;SDS011;11525;51.152;4.456;2023-11-21T10:43:07;14.50;;;10.88;;
22715;SDS011;11525;51.152;4.456;2023-11-21T10:45:34;19.27;;;10.52;;
22715;SDS011;11525;51.152;4.456;2023-11-21T10:48:06;11.88;;;9.43;;
22715;SDS011;11525;51.152;4.456;2023-11-21T10:50:35;11.55;;;8.43;;
22715;SDS011;11525;51.152;4.456;2023-11-21T10:53:02;11.30;;;7.93;;
22715;SDS011;11525;51.152;4.456;2023-11-21T10:55:29;9.20;;;7.43;;
22715;SDS011;11525;51.152;4.456;2023-11-21T10:57:58;10.73;;;8.15;;
22715;SDS011;11525;51.152;4.456;2023-11-21T11:00:27;12.40;;;7.70;;
22715;SDS011;11525;51.152;4.456;2023-11-21T11:02:53;11.70;;;7.72;;
22715;SDS011;11525;51.152;4.456;2023-11-21T11:05:20;8.38;;;6.93;;
22715;SDS011;11525;51.152;4.456;2023-11-21T11:07:54;9.80;;;6.53;;
22715;SDS011;11525;51.152;4.456;2023-11-21T11:10:26;7.72;;;6.90;;
22715;SDS011;11525;51.152;4.456;2023-11-21T11:12:54;10.27;;;7.57;;
22715;SDS011;11525;51.152;4.456;2023-11-21T11:15:22;8.50;;;6.38;;
22715;SDS011;11525;51.152;4.456;2023-11-21T11:17:49;7.43;;;6.10;;
22715;SDS011;11525;51.152;4.456;2023-11-21T11:20:15;8.82;;;6.57;;
22715;SDS011;11525;51.152;4.456;2023-11-21T11:25:46;9.93;;;6.00;;
22715;SDS011;11525;51.152;4.456;2023-11-21T11:28:35;6.90;;;6.00;;
22715;SDS011;11525;51.152;4.456;2023-11-21T11:33:39;8.77;;;6.47;;
22715;SDS011;11525;51.152;4.456;2023-11-21T11:36:29;8.18;;;5.93;;
22715;SDS011;11525;51.152;4.456;2023-11-21T11:39:27;8.73;;;5.90;;
22715;SDS011;11525;51.152;4.456;2023-11-21T11:42:01;6.35;;;5.07;;
22715;SDS011;11525;51.152;4.456;2023-11-21T11:47:27;7.30;;;5.50;;
22715;SDS011;11525;51.152;4.456;2023-11-21T11:50:06;7.57;;;6.00;;
22715;SDS011;11525;51.152;4.456;2023-11-21T11:52:45;8.05;;;5.35;;
22715;SDS011;11525;51.152;4.456;2023-11-21T11:55:13;7.40;;;6.05;;
22715;SDS011;11525;51.152;4.456;2023-11-21T11:57:43;7.60;;;6.57;;
22715;SDS011;11525;51.152;4.456;2023-11-21T12:02:45;9.50;;;8.45;;
22715;SDS011;11525;51.152;4.456;2023-11-21T12:05:16;13.90;;;9.25;;
22715;SDS011;11525;51.152;4.456;2023-11-21T12:10:16;12.10;;;9.00;;
22715;SDS011;11525;51.152;4.456;2023-11-21T12:13:05;12.38;;;8.98;;
22715;SDS011;11525;51.152;4.456;2023-11-21T12:15:32;11.35;;;8.95;;
22715;SDS011;11525;51.152;4.456;2023-11-21T12:18:02;12.82;;;9.45;;
22715;SDS011;11525;51.152;4.456;2023-11-21T12:20:29;9.63;;;8.15;;
22715;SDS011;11525;51.152;4.456;2023-11-21T12:22:59;9.55;;;7.72;;
22715;SDS011;11525;51.152;4.456;2023-11-21T12:25:29;10.23;;;8.50;;
22715;SDS011;11525;51.152;4.456;2023-11-21T12:27:59;10.98;;;8.25;;
22715;SDS011;11525;51.152;4.456;2023-11-21T12:30:26;9.25;;;6.90;;
22715;SDS011;11525;51.152;4.456;2023-11-21T12:32:57;8.98;;;6.43;;
22715;SDS011;11525;51.152;4.456;2023-11-21T12:35:25;7.22;;;6.03;;
22715;SDS011;11525;51.152;4.456;2023-11-21T12:37:56;7.78;;;6.38;;
22715;SDS011;11525;51.152;4.456;2023-11-21T12:40:25;7.30;;;5.85;;
22715;SDS011;11525;51.152;4.456;2023-11-21T12:42:52;8.32;;;6.30;;
22715;SDS011;11525;51.152;4.456;2023-11-21T12:45:22;9.07;;;6.50;;
22715;SDS011;11525;51.152;4.456;2023-11-21T12:47:56;8.10;;;6.57;;
22715;SDS011;11525;51.152;4.456;2023-11-21T12:50:28;11.23;;;6.82;;
22715;SDS011;11525;51.152;4.456;2023-11-21T12:53:11;10.30;;;6.78;;
22715;SDS011;11525;51.152;4.456;2023-11-21T12:55:38;6.97;;;6.00;;
22715;SDS011;11525;51.152;4.456;2023-11-21T12:58:06;9.73;;;6.45;;
22715;SDS011;11525;51.152;4.456;2023-11-21T13:00:37;9.52;;;6.20;;
22715;SDS011;11525;51.152;4.456;2023-11-21T13:03:04;10.45;;;6.35;;
22715;SDS011;11525;51.152;4.456;2023-11-21T13:05:33;7.20;;;6.07;;
22715;SDS011;11525;51.152;4.456;2023-11-21T13:08:00;7.95;;;5.60;;
22715;SDS011;11525;51.152;4.456;2023-11-21T13:10:29;7.95;;;5.60;;
22715;SDS011;11525;51.152;4.456;2023-11-21T13:12:59;6.32;;;4.95;;
22715;SDS011;11525;51.152;4.456;2023-11-21T13:15:29;6.05;;;5.18;;
22715;SDS011;11525;51.152;4.456;2023-11-21T13:17:56;7.85;;;5.47;;
22715;SDS011;11525;51.152;4.456;2023-11-21T13:20:23;6.72;;;5.20;;
22715;SDS011;11525;51.152;4.456;2023-11-21T13:22:54;8.23;;;4.97;;
22715;SDS011;11525;51.152;4.456;2023-11-21T13:25:24;7.57;;;5.95;;
22715;SDS011;11525;51.152;4.456;2023-11-21T13:27:53;5.45;;;4.95;;
22715;SDS011;11525;51.152;4.456;2023-11-21T13:30:20;6.93;;;5.18;;
22715;SDS011;11525;51.152;4.456;2023-11-21T13:32:53;6.43;;;4.68;;
22715;SDS011;11525;51.152;4.456;2023-11-21T13:35:22;6.40;;;5.53;;
22715;SDS011;11525;51.152;4.456;2023-11-21T13:37:55;7.50;;;5.03;;
22715;SDS011;11525;51.152;4.456;2023-11-21T13:40:25;6.00;;;5.40;;
22715;SDS011;11525;51.152;4.456;2023-11-21T13:42:51;6.95;;;5.60;;
22715;SDS011;11525;51.152;4.456;2023-11-21T13:45:18;7.90;;;5.85;;
22715;SDS011;11525;51.152;4.456;2023-11-21T13:47:46;6.82;;;5.10;;
22715;SDS011;11525;51.152;4.456;2023-11-21T13:50:12;6.18;;;5.50;;
22715;SDS011;11525;51.152;4.456;2023-11-21T13:52:44;6.32;;;5.55;;
22715;SDS011;11525;51.152;4.456;2023-11-21T13:55:12;8.27;;;5.47;;
22715;SDS011;11525;51.152;4.456;2023-11-21T13:57:41;5.50;;;5.00;;
22715;SDS011;11525;51.152;4.456;2023-11-21T14:00:12;6.22;;;5.40;;
22715;SDS011;11525;51.152;4.456;2023-11-21T14:02:58;6.63;;;5.90;;
22715;SDS011;11525;51.152;4.456;2023-11-21T14:05:31;6.05;;;5.53;;
22715;SDS011;11525;51.152;4.456;2023-11-21T14:07:59;7.88;;;5.85;;
22715;SDS011;11525;51.152;4.456;2023-11-21T14:10:30;8.30;;;6.10;;
22715;SDS011;11525;51.152;4.456;2023-11-21T14:13:08;6.88;;;6.07;;
22715;SDS011;11525;51.152;4.456;2023-11-21T14:15:40;9.07;;;6.72;;
22715;SDS011;11525;51.152;4.456;2023-11-21T14:18:11;10.23;;;7.65;;
22715;SDS011;11525;51.152;4.456;2023-11-21T14:20:42;8.52;;;6.70;;
22715;SDS011;11525;51.152;4.456;2023-11-21T14:23:09;8.23;;;6.68;;
22715;SDS011;11525;51.152;4.456;2023-11-21T14:25:35;8.30;;;6.90;;
22715;SDS011;11525;51.152;4.456;2023-11-21T14:28:02;7.95;;;6.57;;
22715;SDS011;11525;51.152;4.456;2023-11-21T14:30:29;8.98;;;7.90;;
22715;SDS011;11525;51.152;4.456;2023-11-21T14:32:58;10.30;;;7.72;;
22715;SDS011;11525;51.152;4.456;2023-11-21T14:35:24;11.45;;;7.60;;
22715;SDS011;11525;51.152;4.456;2023-11-21T14:37:51;10.95;;;8.98;;
22715;SDS011;11525;51.152;4.456;2023-11-21T14:40:17;12.13;;;8.85;;
22715;SDS011;11525;51.152;4.456;2023-11-21T14:42:49;13.48;;;9.23;;
22715;SDS011;11525;51.152;4.456;2023-11-21T14:45:18;12.18;;;9.25;;
22715;SDS011;11525;51.152;4.456;2023-11-21T14:47:45;12.18;;;9.00;;